Time;durP1;ratioP1;P1;durP2;ratioP2;P2;SDS_P1;SDS_P2;PMS_P1;PMS_P2;Temp;Humidity;BMP_temperature;BMP_pressure;BME280_temperature;BME280_humidity;BME280_pressure;Samples;Min_cycle;Max_cycle;Signal;HPM_P1;HPM_P2
2022/07/14 00:00:21;;;;;;;;;;;15.40;99.90;;;;;;6340123;22;19921;-93
2022/07/14 00:02:47;;;;;;;;;;;15.50;99.90;;;;;;6287012;22;19915;-93
2022/07/14 00:23:57;;;;;;;;;;;15.10;99.90;;;;;;6370865;22;19914;-94
2022/07/14 00:26:23;;;;;;;;;;;15.10;99.90;;;;;;6318013;22;19935;-93
2022/07/14 11:44:50;;;;;;;2.53;0.23;;;20.00;99.90;;;;;;6199724;22;1378521;-91
2022/07/14 11:47:28;;;;;;;1.88;0.30;;;20.10;99.90;;;;;;6159991;23;20025;-91
2022/07/14 11:50:05;;;;;;;0.15;0.10;;;20.20;99.90;;;;;;6160232;23;20092;-92
2022/07/14 12:32:16;;;;;;;2.22;0.30;;;20.90;99.90;;;;;;6225371;22;20024;-96
2022/07/14 12:34:43;;;;;;;0.57;0.20;;;21.00;99.90;;;;;;6250285;22;20468;-95
2022/07/14 15:16:29;;;;;;;0.95;0.30;;;19.40;99.10;;;;;;6246942;22;20024;-92
2022/07/14 15:31:51;;;;;;;3.90;1.25;;;18.20;99.90;;;;;;6222252;22;20024;-89
2022/07/14 16:03:12;;;;;;;1.75;0.60;;;18.00;99.90;;;;;;6277573;22;20023;-91
2022/07/14 16:05:37;;;;;;;3.92;0.65;;;18.00;99.90;;;;;;6250031;22;20456;-92
2022/07/14 16:08:03;;;;;;;2.63;0.65;;;18.20;99.90;;;;;;6250069;22;20042;-90
2022/07/14 16:10:29;;;;;;;2.67;0.70;;;18.20;99.90;;;;;;6275717;22;20091;-90
2022/07/14 16:13:15;;;;;;;1.55;0.55;;;18.30;99.90;;;;;;6249944;22;20043;-91
2022/07/14 16:15:41;;;;;;;1.17;0.40;;;18.40;99.90;;;;;;6249996;22;20023;-92
2022/07/14 16:18:09;;;;;;;1.35;0.50;;;18.40;99.90;;;;;;6250712;22;20491;-94
2022/07/14 16:20:35;;;;;;;3.72;0.60;;;18.50;99.90;;;;;;6250362;22;20090;-92
2022/07/14 16:23:02;;;;;;;2.92;0.52;;;18.60;99.90;;;;;;6275715;22;20038;-91
2022/07/14 16:25:28;;;;;;;3.58;0.60;;;18.50;99.90;;;;;;6250232;22;20015;-93
2022/07/14 16:27:54;;;;;;;1.88;0.70;;;18.60;99.90;;;;;;6250096;22;20018;-93
2022/07/14 16:30:19;;;;;;;2.22;0.80;;;18.60;99.90;;;;;;6250100;22;20024;-92
2022/07/14 16:32:45;;;;;;;3.22;0.68;;;18.60;99.90;;;;;;6250170;22;20020;-90
2022/07/14 16:35:11;;;;;;;1.10;0.45;;;18.70;99.90;;;;;;6250158;22;20008;-92
2022/07/14 16:37:37;;;;;;;1.67;0.60;;;18.70;99.90;;;;;;6248042;22;20023;-89
2022/07/14 16:40:05;;;;;;;3.50;0.57;;;18.70;99.90;;;;;;6250060;22;20016;-93
2022/07/14 16:42:30;;;;;;;2.40;0.75;;;18.70;99.90;;;;;;6249742;22;20015;-90
2022/07/14 16:44:56;;;;;;;2.15;0.68;;;18.70;99.90;;;;;;6246558;22;20008;-92
2022/07/14 16:47:22;;;;;;;2.33;0.63;;;18.70;99.90;;;;;;6248073;22;20303;-90
2022/07/14 16:49:48;;;;;;;4.25;0.50;;;18.70;99.90;;;;;;6249733;22;20016;-92
2022/07/14 16:52:14;;;;;;;2.70;0.50;;;18.70;99.90;;;;;;6250884;22;20051;-95
2022/07/14 18:01:28;;;;;;;1.13;0.40;;;18.40;99.90;;;;;;6278741;22;20023;-91
2022/07/14 18:03:58;;;;;;;1.40;0.35;;;18.50;99.90;;;;;;6228874;22;20404;-92
2022/07/14 18:06:24;;;;;;;1.52;0.40;;;18.50;99.90;;;;;;6228694;22;20019;-91
2022/07/14 23:07:33;;;;;;;3.08;0.25;;;14.80;99.90;;;;;;6270496;22;20027;-89
2022/07/14 23:09:59;;;;;;;;;;;14.80;99.90;;;;;;6251307;22;20020;-91
2022/07/14 23:12:31;;;;;;;2.00;0.30;;;14.80;99.90;;;;;;6251197;22;19957;-89
2022/07/14 23:17:49;;;;;;;1.58;0.40;;;14.90;99.90;;;;;;6250757;22;20058;-91
2022/07/14 23:20:38;;;;;;;2.17;0.40;;;14.90;99.90;;;;;;6225929;22;20016;-90
2022/07/14 23:23:05;;;;;;;0.77;0.20;;;14.90;99.90;;;;;;6225317;22;20051;-90
2022/07/14 23:25:32;;;;;;;4.63;0.82;;;14.90;99.90;;;;;;6225644;22;20016;-93
2022/07/14 23:27:58;;;;;;;3.17;0.47;;;14.80;99.90;;;;;;6251023;22;20479;-92
2022/07/14 23:30:24;;;;;;;2.65;0.43;;;14.90;99.90;;;;;;6225675;22;20345;-91
2022/07/14 23:32:53;;;;;;;2.05;0.63;;;14.90;99.90;;;;;;6225760;22;20098;-93
